Time;durP1;ratioP1;P1;durP2;ratioP2;P2;SDS_P1;SDS_P2;PMS_P1;PMS_P2;Temp;Humidity;BMP_temperature;BMP_pressure;BME280_temperature;BME280_humidity;BME280_pressure;Samples;Min_cycle;Max_cycle;Signal;HPM_P1;HPM_P2
2021/01/16 00:01:17;;;;;;;4.55;4.15;;;;;;;;;;5072859;28;20171;-43
2021/01/16 00:03:42;;;;;;;5.25;4.75;;;;;;;;;;5072344;28;20179;-43
2021/01/16 00:06:07;;;;;;;4.60;4.20;;;;;;;;;;5071230;28;20195;-43
2021/01/16 00:08:32;;;;;;;4.40;4.00;;;;;;;;;;5073577;28;20175;-43
2021/01/16 00:10:58;;;;;;;4.77;4.37;;;;;;;;;;5073016;28;20236;-43
2021/01/16 00:13:24;;;;;;;4.70;4.30;;;;;;;;;;5071030;28;20215;-43
2021/01/16 00:15:50;;;;;;;4.73;4.33;;;;;;;;;;5070944;28;20655;-43
2021/01/16 00:18:16;;;;;;;4.60;4.20;;;;;;;;;;5073209;28;20597;-44
2021/01/16 00:20:43;;;;;;;4.70;4.30;;;;;;;;;;5072866;28;20244;-43
2021/01/16 00:23:08;;;;;;;5.37;4.83;;;;;;;;;;5071313;28;20632;-43
2021/01/16 00:25:34;;;;;;;5.30;4.83;;;;;;;;;;5073213;28;20640;-43
2021/01/16 00:28:00;;;;;;;5.10;4.70;;;;;;;;;;5072312;28;20304;-43
2021/01/16 00:30:27;;;;;;;5.10;4.70;;;;;;;;;;5072352;28;20601;-43
2021/01/16 00:32:53;;;;;;;6.10;5.27;;;;;;;;;;5071471;28;20642;-43
2021/01/16 00:35:19;;;;;;;4.90;4.50;;;;;;;;;;5067790;28;20623;-43
2021/01/16 00:37:46;;;;;;;4.67;4.20;;;;;;;;;;5076995;28;20179;-43
2021/01/16 00:40:13;;;;;;;5.10;4.40;;;;;;;;;;5072794;28;20641;-43
2021/01/16 00:42:42;;;;;;;4.73;4.33;;;;;;;;;;5072557;28;20597;-43
2021/01/16 00:45:08;;;;;;;4.40;4.00;;;;;;;;;;5068357;28;20596;-43
2021/01/16 00:47:34;;;;;;;4.60;4.20;;;;;;;;;;5077785;28;20978;-43
2021/01/16 00:49:59;;;;;;;4.90;4.50;;;;;;;;;;5072236;28;20182;-42
2021/01/16 00:52:24;;;;;;;4.97;4.47;;;;;;;;;;5071935;28;20589;-42
2021/01/16 00:54:49;;;;;;;5.72;5.22;;;;;;;;;;5067828;28;20175;-43
2021/01/16 00:57:14;;;;;;;4.93;4.53;;;;;;;;;;5073201;28;20186;-42
2021/01/16 00:59:40;;;;;;;4.47;4.05;;;;;;;;;;5072278;28;20230;-42
2021/01/16 01:02:05;;;;;;;8.00;4.45;;;;;;;;;;5068842;28;20171;-43
2021/01/16 01:04:30;;;;;;;5.20;4.80;;;;;;;;;;5068141;28;20182;-42
2021/01/16 01:06:55;;;;;;;5.07;4.57;;;;;;;;;;5072252;28;20266;-43
2021/01/16 01:09:20;;;;;;;4.82;4.43;;;;;;;;;;5084068;28;20179;-43
2021/01/16 01:11:46;;;;;;;5.22;4.72;;;;;;;;;;5079592;28;20274;-43
2021/01/16 01:14:11;;;;;;;4.97;4.50;;;;;;;;;;5074187;28;20218;-43
2021/01/16 01:16:36;;;;;;;5.20;4.75;;;;;;;;;;5070070;28;20258;-43
2021/01/16 01:19:01;;;;;;;4.20;3.90;;;;;;;;;;5073278;28;20235;-42
2021/01/16 01:21:26;;;;;;;5.00;4.60;;;;;;;;;;5071236;28;20925;-43
2021/01/16 01:23:51;;;;;;;5.68;5.10;;;;;;;;;;5069042;28;20210;-43
2021/01/16 01:26:16;;;;;;;5.25;4.38;;;;;;;;;;5072463;28;20175;-41
2021/01/16 01:28:42;;;;;;;5.27;4.77;;;;;;;;;;5072545;28;20531;-43
2021/01/16 01:31:07;;;;;;;4.87;4.47;;;;;;;;;;5071655;28;20179;-43
2021/01/16 01:33:32;;;;;;;5.83;5.33;;;;;;;;;;5069685;28;20175;-43
2021/01/16 01:35:57;;;;;;;5.57;5.03;;;;;;;;;;5071253;28;20175;-43
2021/01/16 01:38:22;;;;;;;4.85;4.38;;;;;;;;;;5071674;28;20213;-43
2021/01/16 01:40:47;;;;;;;5.37;4.87;;;;;;;;;;5071802;28;20656;-44
2021/01/16 01:43:13;;;;;;;5.30;4.73;;;;;;;;;;5071401;28;20171;-43
2021/01/16 01:45:39;;;;;;;7.20;5.50;;;;;;;;;;5069839;28;20179;-43
2021/01/16 01:48:04;;;;;;;5.33;4.83;;;;;;;;;;5070950;28;21146;-43
2021/01/16 01:50:30;;;;;;;7.30;5.27;;;;;;;;;;5072309;28;20235;-43
2021/01/16 01:52:56;;;;;;;6.07;5.23;;;;;;;;;;5071398;28;20668;-43
2021/01/16 01:55:22;;;;;;;5.60;4.73;;;;;;;;;;5065858;28;20771;-43
2021/01/16 01:57:51;;;;;;;5.47;5.00;;;;;;;;;;5071204;28;20691;-43
2021/01/16 02:00:16;;;;;;;4.60;4.30;;;;;;;;;;5068984;28;20649;-44
2021/01/16 02:02:43;;;;;;;4.90;4.30;;;;;;;;;;5072137;28;20660;-43
2021/01/16 02:05:08;;;;;;;4.53;4.17;;;;;;;;;;5067328;28;20179;-43
2021/01/16 02:07:39;;;;;;;6.27;4.77;;;;;;;;;;5059704;28;21222;-42
2021/01/16 02:10:05;;;;;;;5.47;4.50;;;;;;;;;;5070632;28;20297;-43
2021/01/16 02:12:31;;;;;;;5.83;5.33;;;;;;;;;;5081804;28;20708;-43
2021/01/16 02:15:06;;;;;;;6.90;6.20;;;;;;;;;;5068555;28;20229;-42
2021/01/16 02:17:35;;;;;;;6.27;5.33;;;;;;;;;;5070850;28;20662;-43
2021/01/16 02:20:07;;;;;;;5.37;4.63;;;;;;;;;;5070351;28;20659;-43
2021/01/16 02:22:42;;;;;;;5.60;5.10;;;;;;;;;;5085953;28;20596;-43
2021/01/16 02:25:14;;;;;;;4.80;4.40;;;;;;;;;;5067843;28;20649;-43
2021/01/16 02:27:39;;;;;;;5.43;4.93;;;;;;;;;;5070531;28;20678;-43
2021/01/16 02:30:05;;;;;;;5.93;5.32;;;;;;;;;;5065334;28;20633;-43
2021/01/16 02:32:32;;;;;;;5.40;4.90;;;;;;;;;;5071470;28;20203;-43
2021/01/16 02:34:57;;;;;;;5.43;4.93;;;;;;;;;;5070084;28;20194;-42
2021/01/16 02:37:23;;;;;;;6.50;5.43;;;;;;;;;;5070243;28;20605;-42
2021/01/16 02:39:51;;;;;;;5.78;5.13;;;;;;;;;;5071048;28;20199;-42
2021/01/16 02:42:24;;;;;;;7.57;5.20;;;;;;;;;;5070618;28;20342;-42
2021/01/16 02:44:58;;;;;;;6.30;4.97;;;;;;;;;;5066062;28;20597;-42
2021/01/16 02:47:26;;;;;;;5.77;5.17;;;;;;;;;;5068538;28;20684;-43
2021/01/16 02:49:54;;;;;;;4.83;4.40;;;;;;;;;;5070478;28;20662;-42
2021/01/16 02:52:20;;;;;;;5.10;4.60;;;;;;;;;;5069454;28;20697;-42
2021/01/16 02:54:46;;;;;;;5.77;4.63;;;;;;;;;;5068350;28;21489;-43
2021/01/16 02:57:11;;;;;;;5.23;4.67;;;;;;;;;;5070250;28;20612;-43
2021/01/16 02:59:40;;;;;;;4.63;4.20;;;;;;;;;;5070369;28;20211;-43
2021/01/16 03:02:06;;;;;;;5.00;4.50;;;;;;;;;;5069624;28;20173;-43
2021/01/16 03:04:32;;;;;;;4.47;4.07;;;;;;;;;;5067940;28;20604;-42
2021/01/16 03:06:58;;;;;;;4.30;3.60;;;;;;;;;;5070192;28;20582;-42
2021/01/16 03:09:23;;;;;;;4.93;4.57;;;;;;;;;;5067222;28;20183;-42
2021/01/16 03:11:49;;;;;;;4.03;3.73;;;;;;;;;;5074984;28;20179;-42
2021/01/16 03:14:15;;;;;;;4.47;4.07;;;;;;;;;;5068189;28;20229;-42
2021/01/16 03:16:45;;;;;;;4.57;4.17;;;;;;;;;;5069440;28;20179;-42
2021/01/16 03:19:16;;;;;;;5.50;4.80;;;;;;;;;;5069800;28;21270;-43
2021/01/16 03:21:41;;;;;;;5.17;4.47;;;;;;;;;;5074973;28;20650;-43
2021/01/16 03:24:07;;;;;;;3.85;3.55;;;;;;;;;;5069930;28;20721;-43
2021/01/16 03:26:32;;;;;;;4.60;3.77;;;;;;;;;;5067941;28;20260;-42
2021/01/16 03:28:57;;;;;;;3.93;3.53;;;;;;;;;;5069551;28;20250;-42
2021/01/16 03:31:22;;;;;;;4.35;3.75;;;;;;;;;;5070162;28;20179;-42
2021/01/16 03:33:47;;;;;;;8.15;4.20;;;;;;;;;;5075191;28;20265;-42
2021/01/16 03:36:12;;;;;;;4.28;3.85;;;;;;;;;;5073809;28;20170;-42
2021/01/16 03:38:37;;;;;;;5.55;4.13;;;;;;;;;;5069453;28;20182;-43
2021/01/16 03:41:03;;;;;;;4.53;4.22;;;;;;;;;;5069993;28;20685;-43
2021/01/16 03:43:28;;;;;;;4.10;3.80;;;;;;;;;;5069687;28;20171;-43
2021/01/16 03:45:53;;;;;;;5.35;4.05;;;;;;;;;;5065808;28;20182;-43
2021/01/16 03:48:18;;;;;;;4.95;4.10;;;;;;;;;;5069479;28;20719;-43
2021/01/16 03:50:43;;;;;;;5.00;4.50;;;;;;;;;;5069844;28;20175;-42
2021/01/16 03:53:09;;;;;;;6.50;3.50;;;;;;;;;;5070944;28;20179;-42
2021/01/16 03:55:34;;;;;;;4.10;3.80;;;;;;;;;;5065344;28;20225;-42
2021/01/16 03:57:59;;;;;;;4.90;4.50;;;;;;;;;;5069943;28;20184;-43
2021/01/16 04:00:24;;;;;;;5.32;4.43;;;;;;;;;;5068832;28;20253;-43
2021/01/16 04:02:49;;;;;;;6.83;3.90;;;;;;;;;;5070834;28;20205;-42
2021/01/16 04:05:15;;;;;;;4.88;4.25;;;;;;;;;;5065976;28;20193;-42
2021/01/16 04:07:40;;;;;;;4.37;4.03;;;;;;;;;;5069435;28;20221;-42
2021/01/16 04:10:05;;;;;;;4.93;4.53;;;;;;;;;;5068613;28;20510;-42
2021/01/16 04:12:30;;;;;;;5.03;4.33;;;;;;;;;;5069136;28;20646;-42
2021/01/16 04:14:56;;;;;;;5.32;4.70;;;;;;;;;;5071650;28;20230;-42
2021/01/16 04:17:21;;;;;;;5.33;4.93;;;;;;;;;;5069571;28;20240;-42
2021/01/16 04:19:46;;;;;;;5.40;4.90;;;;;;;;;;5068622;28;20251;-42
2021/01/16 04:22:11;;;;;;;5.43;4.77;;;;;;;;;;5069271;28;20265;-42
2021/01/16 04:24:36;;;;;;;4.80;4.38;;;;;;;;;;5068239;28;20699;-43
2021/01/16 04:27:01;;;;;;;5.23;4.27;;;;;;;;;;5067517;28;20164;-42
2021/01/16 04:29:27;;;;;;;4.30;3.90;;;;;;;;;;5071676;28;20221;-42
2021/01/16 04:31:52;;;;;;;4.80;4.40;;;;;;;;;;5072563;28;20585;-42
2021/01/16 04:34:17;;;;;;;5.22;4.78;;;;;;;;;;5075230;28;20668;-42
2021/01/16 04:36:43;;;;;;;6.32;4.43;;;;;;;;;;5077432;28;20175;-42
2021/01/16 04:39:08;;;;;;;4.63;4.23;;;;;;;;;;5072293;28;20198;-42
2021/01/16 04:41:34;;;;;;;4.30;3.90;;;;;;;;;;5067182;28;20598;-43
2021/01/16 04:43:59;;;;;;;5.13;4.70;;;;;;;;;;5069745;28;20167;-43
2021/01/16 04:46:25;;;;;;;5.60;4.78;;;;;;;;;;5073929;28;20604;-42
2021/01/16 04:48:57;;;;;;;4.83;4.43;;;;;;;;;;5072796;28;20210;-42
2021/01/16 04:51:23;;;;;;;3.90;3.60;;;;;;;;;;5072552;28;20174;-42
2021/01/16 04:53:49;;;;;;;5.10;4.60;;;;;;;;;;5072123;28;20632;-43
2021/01/16 04:56:14;;;;;;;5.30;4.80;;;;;;;;;;5070116;28;20629;-43
2021/01/16 04:58:39;;;;;;;4.77;4.37;;;;;;;;;;5071773;28;20229;-43
2021/01/16 05:01:06;;;;;;;6.37;5.07;;;;;;;;;;5071714;28;20171;-44
2021/01/16 05:03:38;;;;;;;5.13;4.63;;;;;;;;;;5072126;28;20175;-43
2021/01/16 05:06:09;;;;;;;4.37;3.97;;;;;;;;;;5055986;28;21289;-43
2021/01/16 05:08:37;;;;;;;5.63;4.90;;;;;;;;;;5073073;28;20700;-43
2021/01/16 05:11:04;;;;;;;5.07;4.57;;;;;;;;;;5071854;28;20646;-43
2021/01/16 05:13:32;;;;;;;5.60;4.53;;;;;;;;;;5071678;28;20625;-43
2021/01/16 05:15:58;;;;;;;6.97;4.77;;;;;;;;;;5069161;28;20651;-43
2021/01/16 05:18:25;;;;;;;4.90;4.40;;;;;;;;;;5075951;28;20690;-43
2021/01/16 05:20:50;;;;;;;5.20;4.70;;;;;;;;;;5071426;28;20648;-43
2021/01/16 05:23:15;;;;;;;7.43;4.73;;;;;;;;;;5072023;28;20827;-42
2021/01/16 05:25:48;;;;;;;5.00;4.50;;;;;;;;;;5069830;28;20248;-43
2021/01/16 05:28:17;;;;;;;4.50;4.20;;;;;;;;;;5081850;28;20272;-43
2021/01/16 05:30:54;;;;;;;4.77;4.37;;;;;;;;;;5065089;28;20712;-42
2021/01/16 05:33:21;;;;;;;4.67;4.17;;;;;;;;;;5071374;28;20600;-43
2021/01/16 05:35:48;;;;;;;4.77;4.27;;;;;;;;;;5068196;28;21162;-43
2021/01/16 05:38:14;;;;;;;3.93;3.63;;;;;;;;;;5084312;28;21137;-43
2021/01/16 05:40:39;;;;;;;4.70;4.00;;;;;;;;;;5072686;28;20652;-43
2021/01/16 05:43:05;;;;;;;6.13;4.90;;;;;;;;;;5071667;28;20601;-43
2021/01/16 05:45:32;;;;;;;4.57;3.53;;;;;;;;;;5069111;28;20169;-43
2021/01/16 05:47:58;;;;;;;4.13;3.73;;;;;;;;;;5078337;28;20632;-43
2021/01/16 05:50:23;;;;;;;3.80;3.50;;;;;;;;;;5076306;28;20749;-43
2021/01/16 05:52:49;;;;;;;4.50;4.10;;;;;;;;;;5071586;28;20171;-43
2021/01/16 05:55:16;;;;;;;4.00;3.70;;;;;;;;;;5069187;28;20175;-43
2021/01/16 05:57:44;;;;;;;4.13;3.80;;;;;;;;;;5071982;28;20195;-42
2021/01/16 06:00:09;;;;;;;3.90;3.50;;;;;;;;;;5070655;28;20648;-42
2021/01/16 06:02:35;;;;;;;4.70;4.03;;;;;;;;;;5071024;28;20658;-42
2021/01/16 06:05:00;;;;;;;4.20;3.80;;;;;;;;;;5071064;28;20258;-43
2021/01/16 06:07:25;;;;;;;5.30;4.00;;;;;;;;;;5069572;28;20178;-43
2021/01/16 06:09:51;;;;;;;4.00;3.60;;;;;;;;;;5082449;28;20198;-43
2021/01/16 06:12:18;;;;;;;4.20;3.80;;;;;;;;;;5070226;28;20191;-43
2021/01/16 06:14:44;;;;;;;4.20;3.70;;;;;;;;;;5070574;28;20215;-43
2021/01/16 06:17:10;;;;;;;3.47;3.27;;;;;;;;;;5068875;28;21189;-43
2021/01/16 06:19:36;;;;;;;4.33;3.93;;;;;;;;;;5061507;28;20214;-43
2021/01/16 06:22:07;;;;;;;3.90;3.43;;;;;;;;;;5069868;28;21155;-43
2021/01/16 06:24:35;;;;;;;3.83;3.40;;;;;;;;;;5069803;28;20199;-43
2021/01/16 06:27:00;;;;;;;3.93;3.60;;;;;;;;;;5068334;28;21162;-42
2021/01/16 06:29:26;;;;;;;4.37;3.97;;;;;;;;;;5071649;28;20615;-42
2021/01/16 06:31:51;;;;;;;4.60;4.20;;;;;;;;;;5070122;28;20187;-42
2021/01/16 06:34:27;;;;;;;4.67;4.27;;;;;;;;;;5069867;28;20179;-42
2021/01/16 06:36:54;;;;;;;4.40;4.00;;;;;;;;;;5068136;28;20182;-42
2021/01/16 06:39:23;;;;;;;4.90;4.30;;;;;;;;;;5068818;28;20645;-42
2021/01/16 06:41:52;;;;;;;5.73;4.63;;;;;;;;;;5065432;28;20706;-41
2021/01/16 06:44:17;;;;;;;4.20;3.90;;;;;;;;;;5062936;28;20601;-42
2021/01/16 06:46:46;;;;;;;4.27;3.63;;;;;;;;;;5063360;28;20612;-42
2021/01/16 06:49:21;;;;;;;4.97;4.47;;;;;;;;;;5068472;28;20179;-41
2021/01/16 06:51:48;;;;;;;4.50;4.10;;;;;;;;;;5069868;28;21193;-41
2021/01/16 06:54:20;;;;;;;5.10;4.43;;;;;;;;;;5068353;28;20625;-42
2021/01/16 06:56:48;;;;;;;5.00;4.50;;;;;;;;;;5067160;28;20713;-42
2021/01/16 06:59:13;;;;;;;6.67;4.60;;;;;;;;;;5068908;28;20628;-42
2021/01/16 07:01:49;;;;;;;5.60;4.30;;;;;;;;;;5064153;28;20617;-42
2021/01/16 07:04:16;;;;;;;5.57;4.87;;;;;;;;;;5067717;28;20179;-42
2021/01/16 07:06:45;;;;;;;4.73;4.33;;;;;;;;;;5067589;28;20710;-42
2021/01/16 07:09:20;;;;;;;4.87;4.47;;;;;;;;;;5062944;28;20933;-42
2021/01/16 07:11:47;;;;;;;6.43;5.50;;;;;;;;;;5070020;28;20628;-42
2021/01/16 07:14:12;;;;;;;6.43;5.13;;;;;;;;;;5071759;28;20637;-42
2021/01/16 07:16:37;;;;;;;4.68;4.28;;;;;;;;;;5067268;28;20600;-42
2021/01/16 07:19:03;;;;;;;6.20;5.07;;;;;;;;;;5070220;28;20332;-42
2021/01/16 07:21:28;;;;;;;5.63;5.03;;;;;;;;;;5069623;28;20178;-43
2021/01/16 07:23:54;;;;;;;6.65;4.95;;;;;;;;;;5069656;28;20180;-43
2021/01/16 07:26:19;;;;;;;5.57;5.07;;;;;;;;;;5069322;28;20175;-42
2021/01/16 07:28:44;;;;;;;5.28;4.65;;;;;;;;;;5070474;28;20174;-42
2021/01/16 07:31:11;;;;;;;5.03;4.13;;;;;;;;;;5069900;28;20182;-43
2021/01/16 07:33:36;;;;;;;5.20;4.80;;;;;;;;;;5069726;28;20183;-42
2021/01/16 07:36:03;;;;;;;6.27;5.63;;;;;;;;;;5068310;28;20696;-43
2021/01/16 07:38:29;;;;;;;4.83;4.30;;;;;;;;;;5066535;28;20265;-41
2021/01/16 07:40:56;;;;;;;5.97;5.47;;;;;;;;;;5070305;28;20644;-42
2021/01/16 07:43:40;;;;;;;5.93;4.83;;;;;;;;;;5069829;28;20593;-42
2021/01/16 07:46:10;;;;;;;5.07;4.57;;;;;;;;;;5065674;28;20616;-43
2021/01/16 07:48:45;;;;;;;5.47;4.97;;;;;;;;;;5069812;28;20601;-43
2021/01/16 07:51:11;;;;;;;6.00;4.90;;;;;;;;;;5069708;28;20601;-42
2021/01/16 07:53:41;;;;;;;7.07;5.50;;;;;;;;;;5069829;28;20967;-43
2021/01/16 07:56:14;;;;;;;5.60;5.07;;;;;;;;;;5066940;28;20609;-43
2021/01/16 07:58:42;;;;;;;10.03;6.70;;;;;;;;;;5067035;28;20980;-43
2021/01/16 08:01:22;;;;;;;7.07;5.97;;;;;;;;;;5066419;28;21260;-44
2021/01/16 08:03:53;;;;;;;5.80;5.30;;;;;;;;;;5062164;28;20609;-43
2021/01/16 08:06:30;;;;;;;6.50;5.40;;;;;;;;;;5072529;28;20704;-43
2021/01/16 08:09:02;;;;;;;6.43;5.37;;;;;;;;;;5070498;28;20613;-43
2021/01/16 08:11:28;;;;;;;6.10;5.10;;;;;;;;;;5069295;28;20704;-43
2021/01/16 08:14:20;;;;;;;6.83;5.00;;;;;;;;;;5072887;28;20656;-42
2021/01/16 08:16:47;;;;;;;7.20;6.50;;;;;;;;;;5064884;28;20624;-42
2021/01/16 08:19:14;;;;;;;5.90;5.40;;;;;;;;;;5069712;28;21187;-42
2021/01/16 08:21:52;;;;;;;5.73;5.20;;;;;;;;;;5070853;28;20648;-42
2021/01/16 08:24:18;;;;;;;7.63;6.17;;;;;;;;;;5070437;28;21004;-42
2021/01/16 08:26:53;;;;;;;8.47;6.33;;;;;;;;;;5070729;28;20712;-42
2021/01/16 08:29:19;;;;;;;6.87;5.70;;;;;;;;;;5072998;28;21036;-42
2021/01/16 08:31:44;;;;;;;6.63;5.77;;;;;;;;;;5065650;28;20621;-42
2021/01/16 08:34:09;;;;;;;6.72;6.03;;;;;;;;;;5069202;28;20620;-42
2021/01/16 08:36:35;;;;;;;7.28;6.28;;;;;;;;;;5070625;28;20190;-42
2021/01/16 08:39:20;;;;;;;8.00;6.40;;;;;;;;;;5068865;28;20175;-43
2021/01/16 08:42:01;;;;;;;7.87;6.27;;;;;;;;;;5072971;28;20179;-42
2021/01/16 08:44:46;;;;;;;6.63;6.03;;;;;;;;;;5071301;28;20601;-42
2021/01/16 08:50:14;;;;;;;7.47;5.97;;;;;;;;;;5063068;28;20592;-42
2021/01/16 08:52:39;;;;;;;6.70;6.07;;;;;;;;;;5077377;28;20605;-42
2021/01/16 08:55:05;;;;;;;6.70;6.00;;;;;;;;;;5071530;28;20198;-42
2021/01/16 08:57:34;;;;;;;6.27;5.67;;;;;;;;;;5070171;28;20174;-42
2021/01/16 09:00:19;;;;;;;6.93;6.00;;;;;;;;;;5070325;28;20218;-42
2021/01/16 09:03:04;;;;;;;6.17;5.60;;;;;;;;;;5072446;28;21217;-42
2021/01/16 09:05:30;;;;;;;6.77;6.07;;;;;;;;;;5079191;28;20620;-42
2021/01/16 09:07:55;;;;;;;7.30;6.60;;;;;;;;;;5071508;28;20684;-42
2021/01/16 09:10:21;;;;;;;8.25;6.90;;;;;;;;;;5072377;28;20687;-42
2021/01/16 09:12:47;;;;;;;8.60;7.00;;;;;;;;;;5060799;28;20779;-43
2021/01/16 09:15:21;;;;;;;6.70;5.90;;;;;;;;;;5070097;28;20182;-42
2021/01/16 09:18:05;;;;;;;8.30;7.07;;;;;;;;;;5068351;28;20604;-43
2021/01/16 09:20:39;;;;;;;7.27;6.57;;;;;;;;;;5070051;28;21279;-43
2021/01/16 09:23:16;;;;;;;7.43;6.07;;;;;;;;;;5069840;28;20590;-43
2021/01/16 09:25:42;;;;;;;7.73;6.50;;;;;;;;;;5069407;28;20725;-48
2021/01/16 09:28:07;;;;;;;6.45;5.85;;;;;;;;;;5068256;28;21179;-43
2021/01/16 09:30:32;;;;;;;7.60;6.82;;;;;;;;;;5072186;28;20239;-43
2021/01/16 09:33:17;;;;;;;7.03;5.90;;;;;;;;;;5084999;28;20178;-43
2021/01/16 09:35:42;;;;;;;6.27;5.67;;;;;;;;;;5069729;28;20187;-43
2021/01/16 09:38:17;;;;;;;7.65;7.00;;;;;;;;;;5068257;28;20596;-43
2021/01/16 09:40:43;;;;;;;8.70;7.77;;;;;;;;;;5070031;28;20212;-43
2021/01/16 09:43:18;;;;;;;9.83;8.70;;;;;;;;;;5073696;28;20594;-43
2021/01/16 09:46:03;;;;;;;13.57;10.43;;;;;;;;;;5072027;28;20178;-43
2021/01/16 09:48:41;;;;;;;11.07;7.50;;;;;;;;;;5067653;28;21083;-43
2021/01/16 09:51:07;;;;;;;8.50;7.40;;;;;;;;;;5071469;28;20862;-43
2021/01/16 09:53:32;;;;;;;8.93;6.43;;;;;;;;;;5081049;28;20608;-43
2021/01/16 09:55:57;;;;;;;6.77;5.97;;;;;;;;;;5081996;28;20538;-43
2021/01/16 09:58:27;;;;;;;6.40;5.80;;;;;;;;;;5069114;28;20637;-43
2021/01/16 10:00:52;;;;;;;8.53;7.43;;;;;;;;;;5071210;28;20195;-42
2021/01/16 10:03:31;;;;;;;7.37;6.40;;;;;;;;;;5071829;28;20940;-43
2021/01/16 10:06:02;;;;;;;9.47;7.10;;;;;;;;;;5071237;28;20175;-43
2021/01/16 10:08:28;;;;;;;8.60;6.77;;;;;;;;;;5069090;28;20577;-42
2021/01/16 10:10:54;;;;;;;7.10;6.40;;;;;;;;;;5070953;28;20782;-43
2021/01/16 10:13:29;;;;;;;7.03;6.43;;;;;;;;;;5071674;28;20227;-43
2021/01/16 10:15:56;;;;;;;6.83;5.93;;;;;;;;;;5068855;28;20308;-42
2021/01/16 10:18:25;;;;;;;6.73;6.03;;;;;;;;;;5068894;28;20605;-43
2021/01/16 10:21:00;;;;;;;6.60;5.50;;;;;;;;;;5071110;28;21219;-42
2021/01/16 10:23:26;;;;;;;6.83;6.27;;;;;;;;;;5069208;28;20581;-43
2021/01/16 10:25:58;;;;;;;6.70;6.00;;;;;;;;;;5087942;28;21054;-43
2021/01/16 10:28:27;;;;;;;6.30;5.67;;;;;;;;;;5087528;28;20580;-43
2021/01/16 10:30:59;;;;;;;7.90;5.87;;;;;;;;;;5091267;28;21114;-43
2021/01/16 10:33:26;;;;;;;5.77;5.23;;;;;;;;;;5078943;28;20705;-43
2021/01/16 10:36:04;;;;;;;6.40;5.80;;;;;;;;;;5071020;28;20585;-43
2021/01/16 10:38:48;;;;;;;6.07;5.43;;;;;;;;;;5067184;28;20591;-43
2021/01/16 10:41:15;;;;;;;5.03;4.63;;;;;;;;;;5070485;28;20621;-42
2021/01/16 10:43:40;;;;;;;5.73;5.13;;;;;;;;;;5071881;28;20610;-43
2021/01/16 10:46:31;;;;;;;6.87;6.27;;;;;;;;;;5070857;28;21190;-42
2021/01/16 10:49:15;;;;;;;7.07;6.37;;;;;;;;;;5068798;28;20242;-43
2021/01/16 10:51:46;;;;;;;6.73;6.10;;;;;;;;;;5070791;28;20588;-43
2021/01/16 10:54:13;;;;;;;5.60;5.10;;;;;;;;;;5069684;28;20611;-43
2021/01/16 10:56:42;;;;;;;5.30;4.83;;;;;;;;;;5069896;28;20600;-42
2021/01/16 10:59:08;;;;;;;5.47;4.97;;;;;;;;;;5064066;28;20653;-43
2021/01/16 11:01:42;;;;;;;6.00;5.50;;;;;;;;;;5067957;28;20597;-43
2021/01/16 11:04:15;;;;;;;5.50;5.00;;;;;;;;;;5060001;28;20617;-43
2021/01/16 11:06:47;;;;;;;5.47;4.90;;;;;;;;;;5065798;28;20620;-43
2021/01/16 11:09:32;;;;;;;6.93;5.43;;;;;;;;;;5048817;28;20693;-43
2021/01/16 11:11:58;;;;;;;5.50;5.00;;;;;;;;;;5050457;28;20602;-43
2021/01/16 11:14:31;;;;;;;5.40;4.90;;;;;;;;;;5061032;28;20684;-43
2021/01/16 11:16:57;;;;;;;5.87;5.37;;;;;;;;;;5070081;28;20708;-44
2021/01/16 11:19:27;;;;;;;6.17;5.57;;;;;;;;;;5070086;28;20681;-43
2021/01/16 11:21:56;;;;;;;5.47;4.97;;;;;;;;;;5069773;28;20625;-43
2021/01/16 11:24:41;;;;;;;5.77;5.17;;;;;;;;;;5069509;28;20629;-43
2021/01/16 11:27:09;;;;;;;6.13;5.20;;;;;;;;;;5062103;28;20607;-42
2021/01/16 11:29:40;;;;;;;5.57;5.00;;;;;;;;;;5068549;28;20617;-43
2021/01/16 11:32:15;;;;;;;6.10;5.60;;;;;;;;;;5066045;28;20697;-42
2021/01/16 11:35:03;;;;;;;6.90;6.20;;;;;;;;;;5072026;28;20767;-43
2021/01/16 11:37:48;;;;;;;6.47;5.87;;;;;;;;;;5056451;28;21191;-42
2021/01/16 11:40:24;;;;;;;6.30;5.70;;;;;;;;;;5072292;28;21054;-43
2021/01/16 11:42:53;;;;;;;6.60;6.00;;;;;;;;;;5054871;28;20632;-43
2021/01/16 11:45:19;;;;;;;8.37;7.10;;;;;;;;;;5069118;28;20601;-43
2021/01/16 11:47:50;;;;;;;7.13;6.53;;;;;;;;;;5070199;28;20589;-42
2021/01/16 11:50:16;;;;;;;7.63;6.17;;;;;;;;;;5073654;28;20179;-42
2021/01/16 11:52:41;;;;;;;7.70;6.90;;;;;;;;;;5073691;28;20655;-42
2021/01/16 11:55:10;;;;;;;7.90;7.13;;;;;;;;;;5074354;28;20601;-43
2021/01/16 11:57:36;;;;;;;7.03;6.37;;;;;;;;;;5073848;28;20171;-42
2021/01/16 12:00:01;;;;;;;7.97;7.07;;;;;;;;;;5069612;28;21295;-42
2021/01/16 12:02:27;;;;;;;7.93;7.13;;;;;;;;;;5072767;28;20190;-42
2021/01/16 12:04:52;;;;;;;8.57;7.67;;;;;;;;;;5075249;28;20167;-42
2021/01/16 12:07:17;;;;;;;12.77;8.20;;;;;;;;;;5071946;28;20218;-43
2021/01/16 12:09:43;;;;;;;10.93;8.63;;;;;;;;;;5073590;28;20517;-43
2021/01/16 12:12:09;;;;;;;15.67;11.77;;;;;;;;;;5073126;28;20175;-43
2021/01/16 12:14:35;;;;;;;9.37;8.30;;;;;;;;;;5069180;28;21011;-43
2021/01/16 12:17:07;;;;;;;10.17;8.40;;;;;;;;;;5075225;28;20266;-42
2021/01/16 12:19:34;;;;;;;8.53;7.73;;;;;;;;;;5069147;28;20653;-43
2021/01/16 12:22:09;;;;;;;8.60;7.80;;;;;;;;;;5066035;28;20623;-43
2021/01/16 12:24:35;;;;;;;7.70;6.90;;;;;;;;;;5068366;28;21205;-43
2021/01/16 12:27:02;;;;;;;9.77;8.10;;;;;;;;;;5077838;28;20614;-43
2021/01/16 12:29:47;;;;;;;8.50;7.60;;;;;;;;;;5080183;28;20646;-42
2021/01/16 12:32:13;;;;;;;8.53;7.83;;;;;;;;;;5071808;28;20597;-42
2021/01/16 12:34:43;;;;;;;8.13;7.33;;;;;;;;;;5072919;28;20628;-43
2021/01/16 12:37:09;;;;;;;8.80;7.47;;;;;;;;;;5071019;28;20628;-42
2021/01/16 12:39:35;;;;;;;10.40;7.80;;;;;;;;;;5067042;28;21131;-42
2021/01/16 12:42:00;;;;;;;8.00;7.03;;;;;;;;;;5069232;28;20171;-42
2021/01/16 12:44:25;;;;;;;8.63;7.73;;;;;;;;;;5067323;28;21241;-42
2021/01/16 12:46:51;;;;;;;8.90;8.00;;;;;;;;;;5071083;28;20163;-42
2021/01/16 12:49:18;;;;;;;8.30;7.17;;;;;;;;;;5068188;28;20186;-42
2021/01/16 12:51:43;;;;;;;9.10;8.10;;;;;;;;;;5072000;28;20594;-42
2021/01/16 12:54:17;;;;;;;9.57;8.57;;;;;;;;;;5067677;28;20654;-43
2021/01/16 12:56:43;;;;;;;10.10;9.03;;;;;;;;;;5070504;28;20179;-42
2021/01/16 12:59:12;;;;;;;9.30;8.40;;;;;;;;;;5067267;28;20768;-43
2021/01/16 13:01:37;;;;;;;7.60;6.80;;;;;;;;;;5067239;28;20163;-43
2021/01/16 13:04:03;;;;;;;8.77;7.87;;;;;;;;;;5070826;28;20608;-43
2021/01/16 13:06:29;;;;;;;8.33;7.53;;;;;;;;;;5070444;28;20180;-43
2021/01/16 13:08:57;;;;;;;9.13;8.20;;;;;;;;;;5064711;28;21256;-42
2021/01/16 13:11:23;;;;;;;8.10;7.30;;;;;;;;;;5066982;28;20649;-43
2021/01/16 13:13:58;;;;;;;8.17;7.33;;;;;;;;;;5071074;28;20675;-43
2021/01/16 13:16:29;;;;;;;9.70;8.00;;;;;;;;;;5066907;28;20596;-43
2021/01/16 13:18:58;;;;;;;7.97;7.17;;;;;;;;;;5068337;28;20597;-43
2021/01/16 13:21:30;;;;;;;8.27;7.30;;;;;;;;;;5067763;28;20609;-43
2021/01/16 13:23:55;;;;;;;8.13;7.37;;;;;;;;;;5070376;28;20597;-43
2021/01/16 13:26:20;;;;;;;8.43;7.50;;;;;;;;;;5070552;28;20590;-43
2021/01/16 13:28:47;;;;;;;8.20;7.40;;;;;;;;;;5069292;28;20176;-42
2021/01/16 13:31:15;;;;;;;7.43;6.83;;;;;;;;;;5071087;28;20184;-42
2021/01/16 13:33:47;;;;;;;7.87;7.00;;;;;;;;;;5066411;28;20613;-43
2021/01/16 13:36:16;;;;;;;7.73;6.93;;;;;;;;;;5071520;28;20621;-42
2021/01/16 13:38:42;;;;;;;8.67;7.77;;;;;;;;;;5069262;28;20597;-42
2021/01/16 13:41:07;;;;;;;8.13;7.30;;;;;;;;;;5073611;28;20656;-42
2021/01/16 13:43:38;;;;;;;7.77;6.97;;;;;;;;;;5075015;28;20269;-42
2021/01/16 13:46:03;;;;;;;8.83;7.53;;;;;;;;;;5070652;28;20172;-42
2021/01/16 13:48:44;;;;;;;10.20;7.90;;;;;;;;;;5060932;28;20628;-43
2021/01/16 13:51:25;;;;;;;9.23;7.80;;;;;;;;;;5057562;28;20175;-42
2021/01/16 13:53:57;;;;;;;9.07;8.17;;;;;;;;;;5067773;28;20599;-43
2021/01/16 13:56:23;;;;;;;8.27;7.50;;;;;;;;;;5077645;28;20606;-43
2021/01/16 13:58:50;;;;;;;8.17;7.40;;;;;;;;;;5070366;28;20631;-43
2021/01/16 14:01:32;;;;;;;8.90;7.80;;;;;;;;;;5071908;28;21207;-42
2021/01/16 14:04:03;;;;;;;11.10;9.13;;;;;;;;;;5076705;28;20616;-43
2021/01/16 14:06:28;;;;;;;9.43;8.47;;;;;;;;;;5085245;28;20611;-43
2021/01/16 14:08:56;;;;;;;10.73;9.63;;;;;;;;;;5085087;28;20624;-43
2021/01/16 14:11:21;;;;;;;9.60;8.40;;;;;;;;;;5070960;28;20423;-43
2021/01/16 14:13:46;;;;;;;11.50;9.00;;;;;;;;;;5067082;28;20692;-43
2021/01/16 14:16:11;;;;;;;10.27;8.88;;;;;;;;;;5073881;28;20174;-43
2021/01/16 14:18:37;;;;;;;9.23;8.23;;;;;;;;;;5088163;28;20652;-43
2021/01/16 14:21:12;;;;;;;9.77;8.00;;;;;;;;;;5077302;28;20603;-43
2021/01/16 14:23:38;;;;;;;10.30;8.90;;;;;;;;;;5068095;28;21012;-43
2021/01/16 14:26:19;;;;;;;11.40;9.10;;;;;;;;;;5068700;28;20640;-42
2021/01/16 14:28:46;;;;;;;13.33;10.87;;;;;;;;;;5078835;28;20725;-42
2021/01/16 14:31:12;;;;;;;14.07;10.57;;;;;;;;;;5068415;28;21158;-42
2021/01/16 14:33:37;;;;;;;11.47;10.10;;;;;;;;;;5065971;28;20620;-43
2021/01/16 14:36:06;;;;;;;12.83;11.23;;;;;;;;;;5066315;28;20992;-42
2021/01/16 14:38:31;;;;;;;12.57;10.37;;;;;;;;;;5064413;28;20171;-43
2021/01/16 14:40:56;;;;;;;10.48;9.30;;;;;;;;;;5064761;28;21008;-43
2021/01/16 14:43:23;;;;;;;11.70;9.77;;;;;;;;;;5068750;28;20227;-42
2021/01/16 14:45:50;;;;;;;12.70;10.43;;;;;;;;;;5059442;28;20254;-43
2021/01/16 14:48:15;;;;;;;13.63;11.33;;;;;;;;;;5064801;28;20969;-43
2021/01/16 14:50:44;;;;;;;12.17;10.27;;;;;;;;;;5064436;28;20603;-43